Time,TemperatureF,DewpointF,PressureIn,WindDirection,WindDirectionDegrees,WindSpeedMPH,WindSpeedGustMPH,Humidity,HourlyPrecipIn,Conditions,Clouds,dailyrainin,SoftwareType,DateUTC
2013-05-20 00:05:00,47.3,47.3,30.29,South,191,0.0,0.0,100,0.00,,,0.03,Wunderground v.1.15,2013-05-20 07:05:00,
2013-05-20 00:35:00,46.7,46.7,30.29,South,191,0.0,0.0,100,0.00,,,0.00,Wunderground v.1.15,2013-05-20 07:35:00,
2013-05-20 01:05:00,46.0,46.0,30.29,South,191,0.0,0.0,100,0.00,,,0.00,Wunderground v.1.15,2013-05-20 08:05:00,
2013-05-20 01:35:00,45.5,45.5,30.29,South,191,0.0,0.0,100,0.00,,,0.00,Wunderground v.1.15,2013-05-20 08:35:00,
2013-05-20 02:05:00,45.8,45.8,30.27,SSE,165,0.0,0.0,100,0.00,,,0.00,Wunderground v.1.15,2013-05-20 09:05:00,
2013-05-20 02:35:00,45.4,45.4,30.26,ESE,117,0.0,0.0,100,0.00,,,0.00,Wunderground v.1.15,2013-05-20 09:35:00,
2013-05-20 03:05:00,44.5,44.5,30.25,ESE,117,0.0,0.0,100,0.00,,,0.00,Wunderground v.1.15,2013-05-20 10:05:00,
2013-05-20 03:35:00,43.8,43.8,30.25,ESE,117,0.0,0.0,100,0.00,,,0.00,Wunderground v.1.15,2013-05-20 10:35:00,
2013-05-20 04:05:00,42.9,42.9,30.24,ESE,117,0.0,0.0,100,0.00,,,0.00,Wunderground v.1.15,2013-05-20 11:05:00,
2013-05-20 04:35:00,43.1,43.1,30.24,ESE,117,0.0,0.0,100,0.00,,,0.00,Wunderground v.1.15,2013-05-20 11:35:00,
2013-05-20 05:05:00,42.9,42.9,30.23,ESE,117,0.0,0.0,100,0.00,,,0.00,Wunderground v.1.15,2013-05-20 12:05:00,
2013-05-20 05:35:00,42.9,42.9,30.23,ESE,117,0.0,0.0,100,0.00,,,0.00,Wunderground v.1.15,2013-05-20 12:35:00,
2013-05-20 06:05:00,43.1,43.1,30.23,East,85,0.0,0.0,100,0.00,,,0.00,Wunderground v.1.15,2013-05-20 13:05:00,
2013-05-20 06:35:00,43.9,43.9,30.23,East,85,0.0,0.0,100,0.00,,,0.00,Wunderground v.1.15,2013-05-20 13:35:00,
2013-05-20 07:05:00,47.3,47.3,30.22,East,85,0.0,0.0,100,0.00,,,0.00,Wunderground v.1.15,2013-05-20 14:05:00,
2013-05-20 07:35:00,50.2,50.2,30.22,ENE,68,0.0,0.0,100,0.00,,,0.00,Wunderground v.1.15,2013-05-20 14:35:00,
2013-05-20 08:05:00,54.1,54.1,30.21,ENE,69,0.0,0.0,100,0.00,,,0.00,Wunderground v.1.15,2013-05-20 15:05:00,
2013-05-20 08:35:00,57.6,55.6,30.21,ENE,69,0.0,0.0,93,0.00,,,0.00,Wunderground v.1.15,2013-05-20 15:35:00,
2013-05-20 09:05:00,61.8,56.9,30.20,ENE,69,0.0,0.0,84,0.00,,,0.00,Wunderground v.1.15,2013-05-20 16:05:00,
2013-05-20 09:35:00,63.9,58.0,30.19,ENE,69,0.0,0.0,81,0.00,,,0.00,Wunderground v.1.15,2013-05-20 16:35:00,
2013-05-20 10:05:00,62.3,53.9,30.17,ENE,66,0.0,0.0,74,0.00,,,0.00,Wunderground v.1.15,2013-05-20 17:05:00,
2013-05-20 10:35:00,61.3,52.9,30.15,ESE,106,0.0,0.0,74,0.00,,,0.00,Wunderground v.1.15,2013-05-20 17:35:00,
2013-05-20 11:05:00,62.7,53.9,30.14,SE,128,0.0,0.0,73,0.00,,,0.00,Wunderground v.1.15,2013-05-20 18:05:00,
2013-05-20 11:35:00,62.6,53.4,30.14,South,171,0.0,0.0,72,0.00,,,0.00,Wunderground v.1.15,2013-05-20 18:35:00,
2013-05-20 12:05:00,64.0,54.0,30.13,WSW,251,0.0,0.0,70,0.00,,,0.00,Wunderground v.1.15,2013-05-20 19:05:00,
2013-05-20 12:35:00,65.6,53.9,30.12,WSW,250,0.0,0.0,66,0.00,,,0.00,Wunderground v.1.15,2013-05-20 19:35:00,
2013-05-20 13:05:00,67.6,55.4,30.10,WSW,250,0.0,0.0,65,0.00,,,0.00,Wunderground v.1.15,2013-05-20 20:05:00,
2013-05-20 13:35:00,65.6,54.8,30.11,South,186,0.0,0.0,68,0.00,,,0.00,Wunderground v.1.15,2013-05-20 20:35:00,
2013-05-20 14:05:00,65.0,54.6,30.10,SW,217,0.0,0.0,69,0.00,,,0.00,Wunderground v.1.15,2013-05-20 21:05:00,
2013-05-20 14:35:00,64.8,54.8,30.09,SSE,155,0.0,0.0,70,0.00,,,0.00,Wunderground v.1.15,2013-05-20 21:35:00,
2013-05-20 15:05:00,66.8,55.5,30.07,ESE,112,0.0,0.0,67,0.00,,,0.00,Wunderground v.1.15,2013-05-20 22:05:00,
2013-05-20 15:35:00,67.1,54.5,30.06,SSW,208,0.0,0.0,64,0.00,,,0.00,Wunderground v.1.15,2013-05-20 22:35:00,
2013-05-20 16:05:00,64.5,53.7,30.06,SW,233,0.0,0.0,68,0.00,,,0.00,Wunderground v.1.15,2013-05-20 23:05:00,
2013-05-20 16:35:00,63.2,52.1,30.05,WSW,240,0.0,0.0,67,0.00,,,0.00,Wunderground v.1.15,2013-05-20 23:35:00,
2013-05-20 17:05:00,61.5,51.6,30.03,SW,233,0.0,0.0,70,0.00,,,0.00,Wunderground v.1.15,2013-05-21 00:05:00,
2013-05-20 17:35:00,61.3,52.6,30.02,West,274,0.0,0.0,73,0.00,,,0.00,Wunderground v.1.15,2013-05-21 00:35:00,
2013-05-20 18:05:00,59.5,51.9,30.02,West,274,0.0,0.0,76,0.00,,,0.00,Wunderground v.1.15,2013-05-21 01:05:00,
2013-05-20 18:35:00,58.7,51.9,30.00,West,274,0.0,0.0,78,0.00,,,0.00,Wunderground v.1.15,2013-05-21 01:35:00,
2013-05-20 19:05:00,56.9,51.8,30.00,West,274,0.0,0.0,83,0.00,,,0.00,Wunderground v.1.15,2013-05-21 02:05:00,
2013-05-20 19:35:00,55.0,52.7,30.00,West,265,0.0,0.0,92,0.00,,,0.00,Wunderground v.1.15,2013-05-21 02:35:00,
2013-05-20 20:05:00,53.9,52.5,30.00,West,265,0.0,0.0,95,0.00,,,0.00,Wunderground v.1.15,2013-05-21 03:05:00,
2013-05-20 20:35:00,52.9,51.8,29.99,West,265,0.0,0.0,96,0.00,,,0.00,Wunderground v.1.15,2013-05-21 03:35:00,
2013-05-20 21:05:00,51.9,51.4,29.99,West,265,0.0,0.0,98,0.00,,,0.00,Wunderground v.1.15,2013-05-21 04:05:00,
2013-05-20 21:35:00,51.6,51.3,29.98,West,265,0.0,0.0,99,0.00,,,0.00,Wunderground v.1.15,2013-05-21 04:35:00,
2013-05-20 22:05:00,51.6,51.3,29.98,West,265,0.0,0.0,99,0.00,,,0.00,Wunderground v.1.15,2013-05-21 05:05:00,
2013-05-20 22:35:00,51.6,51.3,29.96,West,265,0.0,0.0,99,0.00,,,0.00,Wunderground v.1.15,2013-05-21 05:35:00,
2013-05-20 23:05:00,51.6,51.1,29.96,West,265,0.0,0.0,98,0.00,,,0.00,Wunderground v.1.15,2013-05-21 06:05:00,
2013-05-20 23:35:00,51.6,51.3,29.94,West,265,0.0,0.0,99,0.00,,,0.00,Wunderground v.1.15,2013-05-21 06:35:00,